createdAt,value
2023-01-11T00:01:06.598Z,7.60
2023-01-11T00:03:31.095Z,7.60
2023-01-11T00:05:58.493Z,7.60
2023-01-11T00:08:24.413Z,7.60
2023-01-11T00:10:47.835Z,7.80
2023-01-11T00:13:11.088Z,7.90
2023-01-11T00:15:36.307Z,7.80
2023-01-11T00:17:59.790Z,7.80
2023-01-11T00:20:23.124Z,7.90
2023-01-11T00:22:46.469Z,7.90
2023-01-11T00:25:11.597Z,7.90
2023-01-11T00:27:35.235Z,7.80
2023-01-11T00:29:58.509Z,7.90
2023-01-11T00:32:21.780Z,7.90
2023-01-11T00:34:45.028Z,7.90
2023-01-11T00:37:08.255Z,7.90
2023-01-11T00:39:31.718Z,7.90
2023-01-11T00:42:13.641Z,8.00
2023-01-11T00:44:54.451Z,7.90
2023-01-11T00:47:36.149Z,8.00
2023-01-11T00:49:59.563Z,7.90
2023-01-11T00:52:22.914Z,8.00
2023-01-11T00:54:46.186Z,8.00
2023-01-11T00:57:11.597Z,8.00
2023-01-11T00:59:35.048Z,8.00
2023-01-11T01:01:58.328Z,8.00
2023-01-11T01:04:21.655Z,8.00
2023-01-11T01:06:45.083Z,8.00
2023-01-11T01:09:08.397Z,8.20
2023-01-11T01:11:31.647Z,8.10
2023-01-11T01:14:13.834Z,8.10
2023-01-11T01:16:37.673Z,8.20
2023-01-11T01:19:01.232Z,8.10
2023-01-11T01:21:24.921Z,8.10
2023-01-11T01:23:48.145Z,8.20
2023-01-11T01:26:11.450Z,8.20
2023-01-11T01:28:34.856Z,8.30
2023-01-11T01:30:59.692Z,8.20
2023-01-11T01:33:23.167Z,8.20
2023-01-11T01:35:46.727Z,8.30
2023-01-11T01:38:09.977Z,8.30
2023-01-11T01:40:33.295Z,8.20
2023-01-11T01:42:56.588Z,8.30
2023-01-11T01:45:25.536Z,8.30
2023-01-11T01:47:54.956Z,8.30
2023-01-11T01:50:24.434Z,8.40
2023-01-11T01:52:51.401Z,8.40
2023-01-11T01:55:24.492Z,8.40
2023-01-11T01:57:48.251Z,8.40
2023-01-11T02:00:13.168Z,8.40
2023-01-11T02:02:39.467Z,8.40
2023-01-11T02:05:04.808Z,8.40
2023-01-11T02:07:32.949Z,8.30
2023-01-11T02:10:02.278Z,8.40
2023-01-11T02:12:30.069Z,8.30
2023-01-11T02:14:55.548Z,8.30
2023-01-11T02:17:18.977Z,8.30
2023-01-11T02:19:59.015Z,8.30
2023-01-11T02:23:12.684Z,8.30
2023-01-11T02:26:38.717Z,8.30
2023-01-11T02:29:11.993Z,8.30
2023-01-11T02:31:41.308Z,8.30
2023-01-11T02:34:21.883Z,8.50
2023-01-11T02:37:01.936Z,8.40
2023-01-11T02:39:35.931Z,8.40
2023-01-11T02:42:26.357Z,8.40
2023-01-11T02:45:03.472Z,8.40
2023-01-11T02:47:34.299Z,8.40
2023-01-11T02:50:05.247Z,8.50
2023-01-11T02:52:36.682Z,8.50
2023-01-11T02:55:02.364Z,8.50
2023-01-11T02:57:29.396Z,8.60
2023-01-11T02:59:57.888Z,8.60
2023-01-11T03:02:21.242Z,8.80
2023-01-11T03:04:45.241Z,8.80
2023-01-11T03:07:33.604Z,8.80
2023-01-11T03:10:12.422Z,8.90
2023-01-11T03:12:57.641Z,9.00
2023-01-11T03:15:48.473Z,9.00
2023-01-11T03:18:29.239Z,9.10
2023-01-11T03:21:00.871Z,9.10
2023-01-11T03:23:33.327Z,9.10
2023-01-11T03:26:01.919Z,9.20
2023-01-11T03:28:36.801Z,9.20
2023-01-11T03:31:06.723Z,9.30
2023-01-11T03:33:38.837Z,9.30
2023-01-11T03:36:12.435Z,9.20
2023-01-11T03:38:42.552Z,9.30
2023-01-11T03:41:10.440Z,9.20
2023-01-11T03:43:37.989Z,9.30
2023-01-11T03:46:07.918Z,9.40
2023-01-11T03:48:37.508Z,9.50
2023-01-11T03:51:02.847Z,9.50
2023-01-11T03:53:28.935Z,9.70
2023-01-11T03:55:56.915Z,9.80
2023-01-11T03:58:20.259Z,9.80
2023-01-11T04:00:43.991Z,9.50
2023-01-11T04:03:09.707Z,9.40
2023-01-11T04:05:34.044Z,9.20
2023-01-11T04:07:57.462Z,9.20
2023-01-11T04:10:20.761Z,9.10
2023-01-11T04:12:44.034Z,9.20
2023-01-11T04:15:09.489Z,9.10
2023-01-11T04:17:32.924Z,9.20
2023-01-11T04:19:57.574Z,9.20
2023-01-11T04:22:20.915Z,9.30
2023-01-11T04:24:44.181Z,9.50
2023-01-11T04:27:07.541Z,9.60
2023-01-11T04:29:30.822Z,9.80
2023-01-11T04:31:54.101Z,9.90
2023-01-11T04:34:17.610Z,10.10
2023-01-11T04:36:42.897Z,10.10
2023-01-11T04:39:10.604Z,10.10
2023-01-11T04:41:51.427Z,10.10
2023-01-11T04:44:14.884Z,10.20
2023-01-11T04:46:38.260Z,10.20
2023-01-11T04:49:01.708Z,10.20
2023-01-11T04:51:25.106Z,10.20
2023-01-11T04:53:50.536Z,10.30
2023-01-11T04:56:13.802Z,10.30
2023-01-11T04:58:38.277Z,10.40
2023-01-11T05:01:02.095Z,10.40
2023-01-11T05:03:25.548Z,10.30
2023-01-11T05:05:57.163Z,10.30
2023-01-11T05:08:20.471Z,10.30
2023-01-11T05:10:45.151Z,10.40
2023-01-11T05:13:08.505Z,10.50
2023-01-11T05:15:31.808Z,10.50
2023-01-11T05:17:55.324Z,10.50
2023-01-11T05:20:18.906Z,10.50
2023-01-11T05:22:42.156Z,10.60
2023-01-11T05:25:06.768Z,10.60
2023-01-11T05:27:31.389Z,10.70
2023-01-11T05:29:55.097Z,10.70
2023-01-11T05:32:18.328Z,10.60
2023-01-11T05:34:41.642Z,10.60
2023-01-11T05:37:04.967Z,10.60
2023-01-11T05:39:28.454Z,10.60
2023-01-11T05:41:51.720Z,10.70
2023-01-11T05:44:33.960Z,10.70
2023-01-11T05:46:57.399Z,10.80
2023-01-11T05:49:20.868Z,10.80
2023-01-11T05:51:45.103Z,10.80
2023-01-11T05:54:12.757Z,10.90
2023-01-11T05:56:36.171Z,11.00
2023-01-11T05:58:59.681Z,11.00
2023-01-11T06:01:26.407Z,11.00
2023-01-11T06:03:49.962Z,11.00
2023-01-11T06:06:13.399Z,11.00
2023-01-11T06:08:36.644Z,11.00
2023-01-11T06:11:00.525Z,11.00
2023-01-11T06:13:30.372Z,11.00
2023-01-11T06:15:53.999Z,11.00
2023-01-11T06:18:18.779Z,11.00
2023-01-11T06:20:42.176Z,11.00
2023-01-11T06:23:05.617Z,11.00
2023-01-11T06:25:30.329Z,11.00
2023-01-11T06:27:54.891Z,11.10
2023-01-11T06:30:20.379Z,11.00
2023-01-11T06:32:43.664Z,11.10
2023-01-11T06:35:09.437Z,11.20
2023-01-11T06:37:32.768Z,11.10
2023-01-11T06:39:56.181Z,11.10
2023-01-11T06:42:19.494Z,11.00
2023-01-11T06:44:42.743Z,11.10
2023-01-11T06:47:06.191Z,11.10
2023-01-11T06:49:29.448Z,11.20
2023-01-11T06:51:54.100Z,11.20
2023-01-11T06:54:21.908Z,11.10
2023-01-11T06:56:45.225Z,11.00
2023-01-11T06:59:08.625Z,11.10
2023-01-11T07:01:32.391Z,11.10
2023-01-11T07:03:55.858Z,11.10
2023-01-11T07:06:19.231Z,11.10
2023-01-11T07:08:43.803Z,11.10
2023-01-11T07:11:07.398Z,11.00
2023-01-11T07:13:30.701Z,11.00
2023-01-11T07:15:54.221Z,11.00
2023-01-11T07:18:18.490Z,11.10
2023-01-11T07:20:42.105Z,11.10
2023-01-11T07:23:05.446Z,11.10
2023-01-11T07:25:31.370Z,11.10
2023-01-11T07:27:58.850Z,11.10
2023-01-11T07:30:22.422Z,11.10
2023-01-11T07:32:45.659Z,11.20
2023-01-11T07:35:10.303Z,11.10
2023-01-11T07:37:34.181Z,11.00
2023-01-11T07:39:57.490Z,11.10
2023-01-11T07:42:54.179Z,11.00
2023-01-11T07:45:17.551Z,11.10
2023-01-11T07:47:41.451Z,11.10
2023-01-11T07:50:06.058Z,11.10
2023-01-11T07:52:29.312Z,11.10
2023-01-11T07:54:52.628Z,11.10
2023-01-11T07:57:15.836Z,11.10
2023-01-11T07:59:40.506Z,11.10
2023-01-11T08:02:03.866Z,11.10
2023-01-11T08:04:27.548Z,11.10
2023-01-11T08:06:50.773Z,11.10
2023-01-11T08:09:14.272Z,11.10
2023-01-11T08:11:55.417Z,11.30
2023-01-11T08:14:36.111Z,11.20
2023-01-11T08:17:00.887Z,11.20
2023-01-11T08:19:24.276Z,11.10
2023-01-11T08:21:47.656Z,11.00
2023-01-11T08:24:11.187Z,11.00
2023-01-11T08:26:34.490Z,11.00
2023-01-11T08:28:57.867Z,11.00
2023-01-11T08:31:21.447Z,11.00
2023-01-11T08:33:46.336Z,11.00
2023-01-11T08:36:12.489Z,11.00
2023-01-11T08:38:36.176Z,10.90
2023-01-11T08:40:59.519Z,11.00
2023-01-11T08:43:22.725Z,10.90
2023-01-11T08:45:46.070Z,11.00
2023-01-11T08:48:09.438Z,11.00
2023-01-11T08:50:34.088Z,10.80
2023-01-11T08:52:57.405Z,10.90
2023-01-11T08:55:21.112Z,10.70
2023-01-11T08:57:44.414Z,10.70
2023-01-11T09:00:10.308Z,10.60
2023-01-11T09:02:33.793Z,10.60
2023-01-11T09:04:57.272Z,10.70
2023-01-11T09:07:22.010Z,10.70
2023-01-11T09:09:45.272Z,10.70
2023-01-11T09:12:08.912Z,10.50
2023-01-11T09:14:32.253Z,10.40
2023-01-11T09:16:56.362Z,10.50
2023-01-11T09:19:19.899Z,10.40
2023-01-11T09:21:43.346Z,10.50
2023-01-11T09:24:08.799Z,10.40
2023-01-11T09:26:32.380Z,10.40
2023-01-11T09:28:55.658Z,10.40
2023-01-11T09:31:19.177Z,10.40
2023-01-11T09:33:42.534Z,10.30
2023-01-11T09:36:06.569Z,10.30
2023-01-11T09:38:30.925Z,10.40
2023-01-11T09:41:04.493Z,10.30
2023-01-11T09:43:30.333Z,10.20
2023-01-11T09:45:56.020Z,10.30
2023-01-11T09:48:28.794Z,10.30
2023-01-11T09:50:52.217Z,10.20
2023-01-11T09:53:27.235Z,10.20
2023-01-11T09:55:54.161Z,10.20
2023-01-11T09:58:43.024Z,10.40
2023-01-11T10:01:14.714Z,10.20
2023-01-11T10:04:41.750Z,10.30
2023-01-11T10:07:22.958Z,10.30
2023-01-11T10:18:27.916Z,10.20
2023-01-11T10:19:31.503Z,10.20
2023-01-11T10:21:54.717Z,10.20
2023-01-11T10:24:25.811Z,10.20
2023-01-11T10:26:52.018Z,10.20
2023-01-11T10:29:39.807Z,10.10
2023-01-11T10:32:18.752Z,10.10
2023-01-11T10:35:13.729Z,10.00
2023-01-11T10:37:59.664Z,10.10
2023-01-11T10:40:40.022Z,10.10
2023-01-11T10:43:14.127Z,10.10
2023-01-11T10:45:43.450Z,10.00
2023-01-11T10:48:16.463Z,10.00
2023-01-11T10:50:48.182Z,10.00
2023-01-11T10:53:20.600Z,10.00
2023-01-11T10:55:52.176Z,10.10
2023-01-11T10:58:37.985Z,10.20
2023-01-11T11:01:17.028Z,10.20
2023-01-11T11:03:54.982Z,10.20
2023-01-11T11:06:32.807Z,10.30
2023-01-11T11:09:05.965Z,10.30
2023-01-11T11:11:37.969Z,10.50
2023-01-11T11:14:10.403Z,10.50
2023-01-11T11:17:00.042Z,10.50
2023-01-11T11:19:31.495Z,10.50
2023-01-11T11:21:54.741Z,10.50
2023-01-11T11:24:27.782Z,10.50
2023-01-11T11:27:17.576Z,10.70
2023-01-11T11:29:50.480Z,10.70
2023-01-11T11:32:24.307Z,10.70
2023-01-11T11:34:50.419Z,10.70
2023-01-11T11:37:26.601Z,10.60
2023-01-11T11:39:52.132Z,10.70
2023-01-11T11:42:18.369Z,10.70
2023-01-11T11:44:41.703Z,10.80
2023-01-11T11:47:07.546Z,10.70
2023-01-11T11:49:32.690Z,10.70
2023-01-11T11:51:58.347Z,10.80
2023-01-11T11:54:28.001Z,10.70
2023-01-11T11:56:51.700Z,10.70
2023-01-11T11:59:19.444Z,10.70
2023-01-11T12:01:47.142Z,10.80
2023-01-11T12:04:16.583Z,10.80
2023-01-11T12:06:41.654Z,10.80
2023-01-11T12:09:13.920Z,10.90
2023-01-11T12:11:42.157Z,10.80
2023-01-11T12:14:19.786Z,10.80
2023-01-11T12:16:45.428Z,10.70
2023-01-11T12:19:29.266Z,10.70
2023-01-11T12:21:53.001Z,10.70
2023-01-11T12:24:19.681Z,10.60
2023-01-11T12:26:59.375Z,10.60
2023-01-11T12:30:08.689Z,10.60
2023-01-11T12:33:14.887Z,10.50
2023-01-11T12:35:51.552Z,10.60
2023-01-11T12:38:44.072Z,10.60
2023-01-11T12:41:50.182Z,10.60
2023-01-11T12:44:21.568Z,10.70
2023-01-11T12:46:59.411Z,10.70
2023-01-11T12:49:35.946Z,10.60
2023-01-11T12:52:27.710Z,10.80
2023-01-11T12:55:21.638Z,10.70
2023-01-11T12:58:01.027Z,10.80
2023-01-11T13:00:39.906Z,10.90
2023-01-11T13:03:34.201Z,10.90
2023-01-11T13:06:08.153Z,11.00
2023-01-11T13:08:48.919Z,10.90
2023-01-11T13:11:35.912Z,10.90
2023-01-11T13:14:26.968Z,11.00
2023-01-11T13:17:01.753Z,11.00
2023-01-11T13:19:32.772Z,10.90
2023-01-11T13:21:59.385Z,10.90
2023-01-11T13:24:29.890Z,10.90
2023-01-11T13:26:56.258Z,10.90
2023-01-11T13:29:28.904Z,10.90
2023-01-11T13:31:54.337Z,11.00
2023-01-11T13:34:26.047Z,10.90
2023-01-11T13:36:55.715Z,10.90
2023-01-11T13:39:28.371Z,11.00
2023-01-11T13:41:56.533Z,11.00
2023-01-11T13:44:26.196Z,11.00
2023-01-11T13:47:01.733Z,11.00
2023-01-11T13:49:49.778Z,11.00
2023-01-11T13:52:15.432Z,11.00
2023-01-11T13:54:49.137Z,10.90
2023-01-11T13:57:23.610Z,11.00
2023-01-11T13:59:54.832Z,11.00
2023-01-11T14:02:25.495Z,11.00
2023-01-11T14:04:55.341Z,11.00
2023-01-11T14:07:36.591Z,11.10
2023-01-11T14:10:24.786Z,11.00
2023-01-11T14:13:06.668Z,11.00
2023-01-11T14:15:38.038Z,11.00
2023-01-11T14:18:19.623Z,11.00
2023-01-11T14:20:58.158Z,11.00
2023-01-11T14:23:25.198Z,10.90
2023-01-11T14:26:18.771Z,10.90
2023-01-11T14:29:00.083Z,10.90
2023-01-11T14:32:11.110Z,10.80
2023-01-11T14:35:03.952Z,10.70
2023-01-11T14:38:13.487Z,10.70
2023-01-11T14:40:57.055Z,10.60
2023-01-11T14:43:57.179Z,10.70
2023-01-11T14:46:51.868Z,10.70
2023-01-11T14:49:32.796Z,10.70
2023-01-11T14:52:00.140Z,10.70
2023-01-11T14:54:28.136Z,10.70
2023-01-11T14:56:55.675Z,10.60
2023-01-11T14:59:43.036Z,10.50
2023-01-11T15:02:27.601Z,10.60
2023-01-11T15:05:36.324Z,10.50
2023-01-11T15:08:21.020Z,10.50
2023-01-11T15:10:57.813Z,10.60
2023-01-11T15:13:25.484Z,10.60
2023-01-11T15:16:07.065Z,10.60
2023-01-11T15:18:31.646Z,10.60
2023-01-11T15:20:59.102Z,10.50
2023-01-11T15:23:23.381Z,10.50
2023-01-11T15:25:49.346Z,10.40
2023-01-11T15:28:46.365Z,10.30
2023-01-11T15:31:39.200Z,10.50
2023-01-11T15:34:06.456Z,10.20
2023-01-11T15:37:09.231Z,10.20
2023-01-11T15:39:40.108Z,10.20
2023-01-11T15:42:29.609Z,10.20
2023-01-11T15:45:25.580Z,10.00
2023-01-11T15:48:12.384Z,10.20
2023-01-11T15:51:15.545Z,10.10
2023-01-11T15:54:27.733Z,10.20
2023-01-11T15:57:39.807Z,10.10
2023-01-11T16:00:41.611Z,10.00
2023-01-11T16:03:29.403Z,9.90
2023-01-11T16:06:03.959Z,9.90
2023-01-11T16:08:33.872Z,9.80
2023-01-11T16:11:20.459Z,9.70
2023-01-11T16:14:04.093Z,9.70
2023-01-11T16:16:32.004Z,9.80
2023-01-11T16:19:00.130Z,9.70
2023-01-11T16:21:34.625Z,9.70
2023-01-11T16:23:58.323Z,9.90
2023-01-11T16:26:23.566Z,9.70
2023-01-11T16:28:52.797Z,9.90
2023-01-11T16:31:16.168Z,9.90
2023-01-11T16:33:39.458Z,10.10
2023-01-11T16:36:14.160Z,10.10
2023-01-11T16:38:48.049Z,10.00
2023-01-11T16:41:15.403Z,10.00
2023-01-11T16:43:49.012Z,10.00
2023-01-11T16:47:07.030Z,10.00
2023-01-11T16:49:30.489Z,10.00
2023-01-11T16:51:54.459Z,10.00
2023-01-11T16:54:24.981Z,9.90
2023-01-11T16:56:50.363Z,9.80
2023-01-11T16:59:26.363Z,9.70
2023-01-11T17:01:52.615Z,9.70
2023-01-11T17:04:29.328Z,9.70
2023-01-11T17:06:52.719Z,9.60
2023-01-11T17:09:22.069Z,9.60
2023-01-11T17:11:48.630Z,9.50
2023-01-11T17:14:53.518Z,9.50
2023-01-11T17:17:17.603Z,9.50
2023-01-11T17:19:46.229Z,9.60
2023-01-11T17:22:18.638Z,9.60
2023-01-11T17:24:50.873Z,9.50
2023-01-11T17:27:22.124Z,9.50
2023-01-11T17:29:48.251Z,9.50
2023-01-11T17:32:19.878Z,9.40
2023-01-11T17:34:44.053Z,9.40
2023-01-11T17:37:10.880Z,9.30
2023-01-11T17:39:36.813Z,9.30
2023-01-11T17:42:20.125Z,9.30
2023-01-11T17:45:03.398Z,9.40
2023-01-11T17:47:27.224Z,9.50
2023-01-11T17:49:52.558Z,9.30
2023-01-11T17:52:23.219Z,9.20
2023-01-11T17:54:46.726Z,9.10
2023-01-11T17:57:11.717Z,9.10
2023-01-11T17:59:35.114Z,9.10
2023-01-11T18:02:03.922Z,9.10
2023-01-11T18:04:29.103Z,9.00
2023-01-11T18:06:56.547Z,9.00
2023-01-11T18:09:26.592Z,9.00
2023-01-11T18:11:51.792Z,9.00
2023-01-11T18:14:21.187Z,9.00
2023-01-11T18:17:00.290Z,8.90
2023-01-11T18:19:32.410Z,8.90
2023-01-11T18:21:56.371Z,8.80
2023-01-11T18:24:34.814Z,8.90
2023-01-11T18:27:19.564Z,8.90
2023-01-11T18:29:53.104Z,9.00
2023-01-11T18:32:18.649Z,9.00
2023-01-11T18:34:44.144Z,9.00
2023-01-11T18:37:07.714Z,9.00
2023-01-11T18:39:31.027Z,9.00
2023-01-11T18:42:10.859Z,8.90
2023-01-11T18:44:35.190Z,8.80
2023-01-11T18:46:58.413Z,8.70
2023-01-11T18:49:23.657Z,8.90
2023-01-11T18:51:46.888Z,8.80
2023-01-11T18:54:16.364Z,8.90
2023-01-11T18:56:39.793Z,8.80
2023-01-11T18:59:03.388Z,8.70
2023-01-11T19:01:26.809Z,8.80
2023-01-11T19:03:50.429Z,8.80
2023-01-11T19:06:15.933Z,8.70
2023-01-11T19:08:39.173Z,8.60
2023-01-11T19:11:03.999Z,8.80
2023-01-11T19:13:27.392Z,8.90
2023-01-11T19:15:51.796Z,8.80
2023-01-11T19:18:15.943Z,8.80
2023-01-11T19:20:40.831Z,9.00
2023-01-11T19:23:05.529Z,9.00
2023-01-11T19:25:29.077Z,8.80
2023-01-11T19:27:54.813Z,8.90
2023-01-11T19:30:19.065Z,9.00
2023-01-11T19:32:42.337Z,8.80
2023-01-11T19:35:08.225Z,8.90
2023-01-11T19:37:32.454Z,9.00
2023-01-11T19:39:57.396Z,9.00
2023-01-11T19:42:21.106Z,8.90
2023-01-11T19:44:44.478Z,8.90
2023-01-11T19:47:12.748Z,8.90
2023-01-11T19:49:36.520Z,8.90
2023-01-11T19:52:00.609Z,9.00
2023-01-11T19:54:25.075Z,8.80
2023-01-11T19:56:50.110Z,9.00
2023-01-11T19:59:13.445Z,9.00
2023-01-11T20:01:36.776Z,8.90
2023-01-11T20:04:00.773Z,8.90
2023-01-11T20:06:24.148Z,8.80
2023-01-11T20:08:47.548Z,9.00
2023-01-11T20:11:14.297Z,8.90
2023-01-11T20:13:39.112Z,9.00
2023-01-11T20:16:07.301Z,9.00
2023-01-11T20:18:30.701Z,9.00
2023-01-11T20:20:57.040Z,9.10
2023-01-11T20:23:20.459Z,9.00
2023-01-11T20:25:43.823Z,9.10
2023-01-11T20:28:07.140Z,9.00
2023-01-11T20:30:31.746Z,9.00
2023-01-11T20:32:55.079Z,9.20
2023-01-11T20:35:18.636Z,9.20
2023-01-11T20:37:41.946Z,9.20
2023-01-11T20:40:07.031Z,9.20
2023-01-11T20:42:31.664Z,9.20
2023-01-11T20:44:55.174Z,9.20
2023-01-11T20:47:19.938Z,9.10
2023-01-11T20:49:43.372Z,9.20
2023-01-11T20:52:07.132Z,9.30
2023-01-11T20:54:30.514Z,9.40
2023-01-11T20:56:54.059Z,9.30
2023-01-11T20:59:20.097Z,9.30
2023-01-11T21:01:44.198Z,9.30
2023-01-11T21:04:11.533Z,9.40
2023-01-11T21:06:37.501Z,9.30
2023-01-11T21:09:02.981Z,9.30
2023-01-11T21:11:27.074Z,9.20
2023-01-11T21:13:53.545Z,9.30
2023-01-11T21:16:17.974Z,9.20
2023-01-11T21:18:43.793Z,9.40
2023-01-11T21:21:14.114Z,9.40
2023-01-11T21:23:37.395Z,9.40
2023-01-11T21:26:00.622Z,9.50
2023-01-11T21:28:24.084Z,9.40
2023-01-11T21:30:47.342Z,9.40
2023-01-11T21:33:10.558Z,9.40
2023-01-11T21:35:35.348Z,9.50
2023-01-11T21:38:00.003Z,9.50
2023-01-11T21:40:23.252Z,9.40
2023-01-11T21:42:46.824Z,9.40
2023-01-11T21:45:12.085Z,9.40
2023-01-11T21:47:35.463Z,9.50
2023-01-11T21:49:59.561Z,9.50
2023-01-11T21:52:22.843Z,9.50
2023-01-11T21:54:48.405Z,9.40
2023-01-11T21:57:11.649Z,9.30
2023-01-11T21:59:35.769Z,9.50
2023-01-11T22:01:59.106Z,9.50
2023-01-11T22:04:22.852Z,9.50
2023-01-11T22:06:51.437Z,9.50
2023-01-11T22:09:15.396Z,9.50
2023-01-11T22:11:40.664Z,9.40
2023-01-11T22:14:08.450Z,9.40
2023-01-11T22:16:33.661Z,9.40
2023-01-11T22:18:57.003Z,9.20
2023-01-11T22:21:21.569Z,9.20
2023-01-11T22:23:45.795Z,9.10
2023-01-11T22:26:12.223Z,9.10
2023-01-11T22:28:57.201Z,8.90
2023-01-11T22:31:20.686Z,8.90
2023-01-11T22:33:44.054Z,8.80
2023-01-11T22:36:09.409Z,8.70
2023-01-11T22:38:33.746Z,8.60
2023-01-11T22:41:01.129Z,8.50
2023-01-11T22:43:24.478Z,8.50
2023-01-11T22:45:58.617Z,8.50
2023-01-11T22:48:21.959Z,8.50
2023-01-11T22:50:45.177Z,8.50
2023-01-11T22:53:08.425Z,8.50
2023-01-11T22:55:34.241Z,8.50
2023-01-11T22:57:58.140Z,8.50
2023-01-11T23:00:22.189Z,8.40
2023-01-11T23:02:47.239Z,8.50
2023-01-11T23:05:10.780Z,8.40
2023-01-11T23:07:34.508Z,8.40
2023-01-11T23:09:57.863Z,8.50
2023-01-11T23:12:50.226Z,8.50
2023-01-11T23:15:13.947Z,8.40
2023-01-11T23:17:37.405Z,8.50
2023-01-11T23:20:02.136Z,8.40
2023-01-11T23:22:25.354Z,8.40
2023-01-11T23:24:48.751Z,8.40
2023-01-11T23:27:12.047Z,8.40
2023-01-11T23:29:35.580Z,8.30
2023-01-11T23:31:58.958Z,8.20
2023-01-11T23:34:22.277Z,8.20
2023-01-11T23:36:47.005Z,8.30
2023-01-11T23:39:14.283Z,8.30
2023-01-11T23:41:55.472Z,8.20
2023-01-11T23:44:19.743Z,8.30
2023-01-11T23:47:00.980Z,8.30
2023-01-11T23:49:25.191Z,8.30
2023-01-11T23:51:50.253Z,8.20
2023-01-11T23:54:14.397Z,8.30
2023-01-11T23:56:37.971Z,8.30
2023-01-11T23:59:02.035Z,8.20
